Time;durP1;ratioP1;P1;durP2;ratioP2;P2;SDS_P1;SDS_P2;PMS_P1;PMS_P2;Temp;Humidity;BMP_temperature;BMP_pressure;BME280_temperature;BME280_humidity;BME280_pressure;Samples;Min_cycle;Max_cycle;Signal;HPM_P1;HPM_P2
2023/12/22 05:01:09;;;;;;;0.90;0.80;;;3.90;97.30;;;;;;5779416;23;20497;-87
2023/12/22 05:03:35;;;;;;;1.10;1.00;;;3.90;97.30;;;;;;5012392;28;20423;-87
2023/12/22 05:06:00;;;;;;;3.53;1.70;;;3.90;97.30;;;;;;5016048;28;20184;-86
2023/12/22 05:08:26;;;;;;;1.17;1.07;;;3.80;97.30;;;;;;5017146;28;20177;-85
2023/12/22 05:10:51;;;;;;;2.00;1.40;;;3.90;97.30;;;;;;5012389;28;20249;-87
2023/12/22 05:13:17;;;;;;;1.10;1.00;;;3.90;97.30;;;;;;5005307;28;20188;-86
2023/12/22 05:15:42;;;;;;;1.10;1.00;;;3.90;97.30;;;;;;5002464;28;20200;-88
2023/12/22 05:18:08;;;;;;;1.07;0.97;;;3.90;97.30;;;;;;4996790;28;20177;-88
2023/12/22 05:20:34;;;;;;;1.37;1.27;;;3.90;97.30;;;;;;5013982;28;20264;-87
2023/12/22 05:23:00;;;;;;;1.00;0.90;;;3.90;97.30;;;;;;4994500;28;20306;-88
2023/12/22 05:25:25;;;;;;;2.00;1.23;;;3.90;97.30;;;;;;5020929;28;20933;-84
2023/12/22 05:27:51;;;;;;;1.20;1.10;;;3.90;97.30;;;;;;4995192;28;20185;-87
2023/12/22 05:30:17;;;;;;;1.03;0.93;;;3.80;97.30;;;;;;5011606;28;20209;-89
2023/12/22 05:32:44;;;;;;;1.10;1.00;;;3.80;97.30;;;;;;4995356;28;20545;-89
2023/12/22 05:35:10;;;;;;;0.97;0.87;;;3.90;97.30;;;;;;4995031;28;20367;-90
2023/12/22 05:37:35;;;;;;;1.00;0.90;;;3.90;97.30;;;;;;4995175;28;20981;-87
2023/12/22 05:40:01;;;;;;;1.00;0.90;;;3.90;97.30;;;;;;4994721;28;20430;-87
2023/12/22 05:42:27;;;;;;;4.20;2.50;;;3.80;97.30;;;;;;5012319;28;20280;-89
2023/12/22 05:44:52;;;;;;;1.10;1.00;;;3.80;97.30;;;;;;4998436;28;20232;-87
2023/12/22 05:47:18;;;;;;;1.83;1.73;;;3.80;97.30;;;;;;4993996;28;20637;-86
2023/12/22 05:49:43;;;;;;;1.03;0.93;;;3.80;97.30;;;;;;4993035;28;20189;-87
2023/12/22 05:52:12;;;;;;;1.00;0.90;;;3.80;97.30;;;;;;5011389;28;20232;-88
2023/12/22 05:54:38;;;;;;;1.00;0.90;;;3.80;97.30;;;;;;4993771;28;20568;-87
2023/12/22 05:57:06;;;;;;;1.93;1.53;;;3.90;97.30;;;;;;4992752;28;20431;-87
2023/12/22 05:59:32;;;;;;;1.00;0.90;;;3.90;97.30;;;;;;4997263;28;20169;-86
2023/12/22 06:02:01;;;;;;;1.00;0.90;;;3.90;97.30;;;;;;4991848;28;20472;-86
2023/12/22 06:04:26;;;;;;;1.10;1.00;;;4.00;97.30;;;;;;4996737;28;20436;-87
2023/12/22 06:06:52;;;;;;;9.03;2.10;;;4.10;97.30;;;;;;4996773;28;20440;-86
2023/12/22 06:09:20;;;;;;;1.30;1.20;;;4.20;97.30;;;;;;5000674;28;20244;-89
2023/12/22 06:11:45;;;;;;;1.47;1.37;;;4.20;97.30;;;;;;5000468;28;20254;-87
2023/12/22 06:14:11;;;;;;;2.87;2.57;;;4.20;97.30;;;;;;5004834;28;20455;-88
2023/12/22 06:16:36;;;;;;;1.97;1.53;;;4.30;97.30;;;;;;4997021;28;20200;-88
2023/12/22 06:19:02;;;;;;;1.00;0.90;;;4.30;97.30;;;;;;4993410;28;20184;-89
2023/12/22 06:21:28;;;;;;;3.33;2.60;;;4.30;97.30;;;;;;4980092;28;21021;-88
2023/12/22 06:23:54;;;;;;;1.10;1.00;;;4.30;97.30;;;;;;4999824;28;20527;-87
2023/12/22 06:26:24;;;;;;;2.33;2.13;;;4.40;97.30;;;;;;5007659;28;20212;-86
2023/12/22 06:28:57;;;;;;;1.10;1.00;;;4.40;97.30;;;;;;4999195;28;20185;-88
2023/12/22 06:31:25;;;;;;;6.43;1.73;;;4.40;97.30;;;;;;5005042;28;20511;-88
2023/12/22 06:34:00;;;;;;;1.00;0.90;;;4.40;97.30;;;;;;4996442;28;20462;-89
2023/12/22 06:36:26;;;;;;;1.00;0.90;;;4.30;97.30;;;;;;4995899;28;20930;-88
2023/12/22 06:38:57;;;;;;;1.00;0.90;;;4.20;97.30;;;;;;5013372;28;20431;-89
2023/12/22 06:41:28;;;;;;;20.83;2.20;;;4.10;97.30;;;;;;5004440;28;20188;-88
2023/12/22 06:43:53;;;;;;;1.00;0.90;;;4.00;97.30;;;;;;4980012;28;20522;-88
2023/12/22 06:46:21;;;;;;;1.30;1.20;;;4.00;97.30;;;;;;4991190;28;20511;-88
2023/12/22 06:48:47;;;;;;;14.27;2.40;;;3.90;97.30;;;;;;4994341;28;20458;-89
2023/12/22 06:51:27;;;;;;;1.10;1.00;;;3.90;97.30;;;;;;5011479;28;20493;-89
2023/12/22 06:53:54;;;;;;;1.00;0.90;;;3.90;97.30;;;;;;4994863;28;20209;-89
2023/12/22 06:56:25;;;;;;;3.37;1.73;;;3.90;97.30;;;;;;4994550;28;20412;-87
2023/12/22 06:58:56;;;;;;;0.90;0.80;;;3.80;97.30;;;;;;4997254;28;20424;-88
2023/12/22 07:01:29;;;;;;;1.47;1.37;;;3.70;97.30;;;;;;4995834;28;20506;-88
2023/12/22 07:03:54;;;;;;;1.00;0.90;;;3.60;97.30;;;;;;4993969;28;20424;-88
2023/12/22 07:06:21;;;;;;;1.80;1.53;;;3.60;97.30;;;;;;5015835;28;20417;-87
2023/12/22 07:09:17;;;;;;;1.00;0.90;;;3.60;97.30;;;;;;4994742;28;20176;-89
2023/12/22 07:11:51;;;;;;;1.10;1.00;;;3.60;97.30;;;;;;4985922;28;20440;-87
2023/12/22 07:14:17;;;;;;;0.93;0.83;;;3.50;97.30;;;;;;4994379;28;20558;-89
2023/12/22 07:16:43;;;;;;;1.10;1.00;;;3.50;97.30;;;;;;4994120;28;20443;-90
2023/12/22 07:19:09;;;;;;;1.00;0.90;;;3.40;97.30;;;;;;4995597;28;20428;-89
2023/12/22 07:21:34;;;;;;;1.00;0.90;;;3.40;97.30;;;;;;4994430;28;20435;-89
2023/12/22 07:24:04;;;;;;;2.70;1.50;;;3.40;97.30;;;;;;4994062;28;20416;-90
2023/12/22 07:26:29;;;;;;;1.10;1.00;;;3.50;97.30;;;;;;4993112;28;20181;-90
2023/12/22 07:28:55;;;;;;;1.50;1.40;;;3.50;97.30;;;;;;4993438;28;20412;-89
2023/12/22 07:31:21;;;;;;;5.43;2.27;;;3.40;97.30;;;;;;4993617;28;20239;-90
2023/12/22 07:33:46;;;;;;;2.37;2.20;;;3.40;97.30;;;;;;4994683;28;20201;-90
2023/12/22 07:36:12;;;;;;;0.90;0.80;;;3.40;97.30;;;;;;4996052;28;20181;-89
2023/12/22 07:38:41;;;;;;;17.73;1.30;;;3.40;97.30;;;;;;4995969;28;20231;-91
2023/12/22 07:41:07;;;;;;;1.10;1.00;;;3.40;97.30;;;;;;4997119;28;20378;-89
2023/12/22 07:43:33;;;;;;;2.50;1.90;;;3.40;97.30;;;;;;4995685;28;20607;-90
2023/12/22 07:45:58;;;;;;;0.97;0.87;;;3.50;97.30;;;;;;4998750;28;20442;-89
2023/12/22 07:48:24;;;;;;;1.00;0.90;;;3.50;97.30;;;;;;4997411;28;20560;-90
2023/12/22 07:50:50;;;;;;;1.00;0.90;;;3.60;97.30;;;;;;4994013;28;20205;-87
2023/12/22 07:53:16;;;;;;;1.00;0.90;;;3.70;97.30;;;;;;4996882;28;20212;-87
2023/12/22 07:55:43;;;;;;;1.23;1.13;;;3.60;97.30;;;;;;4998063;28;20468;-87
2023/12/22 07:58:08;;;;;;;0.90;0.80;;;3.70;97.30;;;;;;4998195;28;20416;-88
2023/12/22 08:00:34;;;;;;;1.33;1.23;;;3.70;97.30;;;;;;4995421;28;20456;-87
2023/12/22 08:03:00;;;;;;;1.00;0.90;;;3.70;97.30;;;;;;4996296;28;20234;-88
2023/12/22 08:05:26;;;;;;;1.20;1.10;;;3.70;97.30;;;;;;4997136;28;20663;-88
2023/12/22 08:07:51;;;;;;;1.00;0.90;;;3.80;97.30;;;;;;4995807;28;20431;-88
2023/12/22 08:10:17;;;;;;;0.90;0.80;;;3.80;97.30;;;;;;5014308;28;20427;-88
2023/12/22 08:12:43;;;;;;;1.23;1.13;;;3.90;97.30;;;;;;5014544;28;20208;-83
2023/12/22 08:15:10;;;;;;;0.90;0.80;;;4.00;97.30;;;;;;5001618;28;20610;-87
2023/12/22 08:17:37;;;;;;;1.40;1.30;;;4.10;97.30;;;;;;4996889;28;20185;-89
2023/12/22 08:20:04;;;;;;;1.00;0.90;;;4.20;97.30;;;;;;5014284;28;20435;-87
2023/12/22 08:22:29;;;;;;;1.00;0.90;;;4.20;97.30;;;;;;4996810;28;20448;-89
2023/12/22 08:24:55;;;;;;;1.10;1.00;;;4.20;97.30;;;;;;4997273;28;20564;-88
2023/12/22 08:27:20;;;;;;;1.10;1.00;;;4.20;97.30;;;;;;4996898;28;20320;-87
2023/12/22 08:29:46;;;;;;;0.90;0.80;;;4.10;97.30;;;;;;4997553;28;20626;-87
2023/12/22 08:32:11;;;;;;;1.47;1.20;;;4.10;97.30;;;;;;4996154;28;20287;-88
2023/12/22 08:34:37;;;;;;;1.10;1.00;;;4.00;97.30;;;;;;4995868;28;20304;-87
2023/12/22 08:37:02;;;;;;;0.90;0.80;;;4.10;97.30;;;;;;4995750;28;20705;-88
2023/12/22 08:39:28;;;;;;;1.00;0.90;;;4.10;97.30;;;;;;4996535;28;20188;-90
2023/12/22 08:41:56;;;;;;;1.10;1.00;;;4.20;97.30;;;;;;4996256;28;20742;-88
2023/12/22 08:44:22;;;;;;;0.90;0.80;;;4.20;97.30;;;;;;4996119;28;20410;-86
2023/12/22 08:46:47;;;;;;;1.57;1.47;;;4.20;97.30;;;;;;4994956;28;20859;-88
2023/12/22 08:49:13;;;;;;;1.50;1.40;;;4.20;97.30;;;;;;4995387;28;20189;-89
2023/12/22 08:51:38;;;;;;;0.90;0.80;;;4.30;97.30;;;;;;4994929;28;20197;-88
2023/12/22 08:54:04;;;;;;;1.00;0.90;;;4.30;97.30;;;;;;4994616;28;20508;-88
2023/12/22 08:56:30;;;;;;;1.00;0.90;;;4.40;97.30;;;;;;4993520;28;20177;-87
2023/12/22 08:58:58;;;;;;;1.10;1.00;;;4.50;97.30;;;;;;4995072;28;20174;-88
2023/12/22 09:01:24;;;;;;;0.90;0.80;;;4.50;97.30;;;;;;4994399;28;20236;-88
2023/12/22 09:03:49;;;;;;;0.90;0.80;;;4.50;97.30;;;;;;4993270;28;20424;-87
2023/12/22 09:06:16;;;;;;;1.00;0.90;;;4.50;97.30;;;;;;4995872;28;20185;-87
2023/12/22 09:08:42;;;;;;;1.17;1.07;;;4.50;97.30;;;;;;5012618;28;20215;-88
2023/12/22 09:11:08;;;;;;;1.00;0.90;;;4.50;97.30;;;;;;4997033;28;20816;-87
2023/12/22 09:13:35;;;;;;;1.00;0.90;;;4.50;97.30;;;;;;5009534;28;20427;-87
2023/12/22 09:16:02;;;;;;;1.40;1.30;;;4.50;97.30;;;;;;4997135;28;20177;-87
2023/12/22 09:18:27;;;;;;;1.03;0.93;;;4.50;97.30;;;;;;4996338;28;20976;-88
2023/12/22 09:20:53;;;;;;;1.03;0.93;;;4.50;97.30;;;;;;5013257;28;20432;-87
2023/12/22 09:23:19;;;;;;;0.93;0.83;;;4.50;97.30;;;;;;4995839;28;20185;-88
2023/12/22 09:25:45;;;;;;;1.00;0.90;;;4.40;97.30;;;;;;4997571;28;20251;-87
2023/12/22 09:28:10;;;;;;;1.00;0.90;;;4.30;97.30;;;;;;4996225;28;20941;-83
2023/12/22 09:30:36;;;;;;;1.10;1.00;;;4.20;97.30;;;;;;4996833;28;20216;-87
2023/12/22 09:33:02;;;;;;;1.53;1.43;;;4.10;97.30;;;;;;4996221;28;20215;-88
2023/12/22 09:35:27;;;;;;;1.07;1.00;;;4.10;97.30;;;;;;4998024;28;20201;-86
2023/12/22 09:37:53;;;;;;;1.00;0.90;;;4.00;97.30;;;;;;4996122;28;20173;-88
2023/12/22 09:40:19;;;;;;;1.00;0.90;;;4.10;97.30;;;;;;4996199;28;20181;-87
2023/12/22 09:42:47;;;;;;;2.60;2.40;;;4.10;97.30;;;;;;4995243;28;20420;-87
2023/12/22 09:45:13;;;;;;;1.00;0.90;;;3.90;97.30;;;;;;5012715;28;20542;-84
2023/12/22 09:47:42;;;;;;;1.00;0.90;;;3.50;97.30;;;;;;4995699;28;20435;-87
2023/12/22 09:50:08;;;;;;;5.30;1.83;;;3.00;97.30;;;;;;4995161;28;20513;-87
2023/12/22 09:52:36;;;;;;;1.10;1.00;;;2.80;97.30;;;;;;4995714;28;20508;-88
2023/12/22 09:55:03;;;;;;;1.00;0.90;;;2.70;97.30;;;;;;5012920;28;20470;-88
2023/12/22 09:57:30;;;;;;;1.10;1.00;;;2.80;97.30;;;;;;4995859;28;20434;-86
2023/12/22 09:59:58;;;;;;;1.97;1.20;;;2.90;97.30;;;;;;4996679;28;20420;-87
2023/12/22 10:02:26;;;;;;;1.67;1.10;;;3.00;97.30;;;;;;4994998;28;20476;-85
2023/12/22 10:04:51;;;;;;;1.00;0.90;;;3.00;97.30;;;;;;4994957;28;20865;-87
2023/12/22 10:07:17;;;;;;;1.00;0.90;;;3.00;97.30;;;;;;5012543;28;20511;-86
2023/12/22 10:09:45;;;;;;;0.90;0.80;;;3.00;97.30;;;;;;4994917;28;20189;-87
2023/12/22 10:12:12;;;;;;;1.00;0.90;;;3.00;97.30;;;;;;4995124;28;20236;-87
2023/12/22 10:14:39;;;;;;;1.00;0.90;;;3.10;97.30;;;;;;4995052;28;20463;-88
2023/12/22 10:17:05;;;;;;;1.00;0.90;;;3.10;97.30;;;;;;5012489;28;20409;-88
2023/12/22 10:19:30;;;;;;;1.00;0.90;;;3.20;97.30;;;;;;5012709;28;20507;-87
2023/12/22 10:21:56;;;;;;;1.00;0.90;;;3.30;97.30;;;;;;4999821;28;20510;-87
2023/12/22 10:24:43;;;;;;;1.00;0.90;;;3.40;97.30;;;;;;5024163;28;20196;-88
2023/12/22 10:27:11;;;;;;;1.07;0.97;;;3.40;97.30;;;;;;5015836;28;20303;-85
2023/12/22 10:29:37;;;;;;;1.00;0.90;;;3.60;97.30;;;;;;5004297;28;20419;-86
2023/12/22 10:32:04;;;;;;;0.90;0.80;;;3.60;97.30;;;;;;4994669;28;20517;-88
2023/12/22 10:34:30;;;;;;;0.93;0.83;;;3.80;97.30;;;;;;4998597;28;20201;-85
2023/12/22 10:36:56;;;;;;;0.90;0.80;;;3.90;97.30;;;;;;5004485;28;20448;-86
2023/12/22 10:39:22;;;;;;;1.00;0.90;;;4.00;97.30;;;;;;5006255;28;20420;-86
2023/12/22 10:41:51;;;;;;;1.10;1.00;;;4.10;97.30;;;;;;5004588;28;20439;-86
2023/12/22 10:44:19;;;;;;;1.20;1.10;;;4.10;97.30;;;;;;5003317;28;20185;-85
2023/12/22 10:46:47;;;;;;;1.00;0.90;;;4.10;97.30;;;;;;5007522;28;20417;-86
2023/12/22 10:49:12;;;;;;;0.90;0.80;;;4.30;97.30;;;;;;5016229;28;20419;-89
2023/12/22 10:51:38;;;;;;;1.00;0.90;;;4.50;97.30;;;;;;5006302;28;20459;-88
2023/12/22 10:54:05;;;;;;;0.90;0.80;;;4.70;97.30;;;;;;5002827;28;20213;-88
2023/12/22 10:56:31;;;;;;;0.90;0.80;;;4.80;97.30;;;;;;4994565;28;20630;-87
2023/12/22 10:58:58;;;;;;;1.00;0.90;;;4.80;97.30;;;;;;4994165;28;20462;-86
2023/12/22 11:01:36;;;;;;;1.30;1.20;;;4.90;97.30;;;;;;4991056;28;20229;-87
2023/12/22 11:04:03;;;;;;;1.30;1.20;;;4.90;97.30;;;;;;4994024;28;20432;-86
2023/12/22 11:06:36;;;;;;;1.00;0.90;;;5.00;97.30;;;;;;5011729;28;20820;-88
2023/12/22 11:09:07;;;;;;;1.67;1.57;;;5.00;97.30;;;;;;4993898;28;21029;-88
2023/12/22 11:11:37;;;;;;;1.00;0.90;;;5.10;97.30;;;;;;4994247;28;20801;-85
2023/12/22 11:14:04;;;;;;;0.90;0.80;;;5.20;97.30;;;;;;4997479;28;20969;-86
2023/12/22 11:16:34;;;;;;;0.93;0.83;;;5.30;97.30;;;;;;4998565;28;20420;-89
2023/12/22 11:19:01;;;;;;;1.10;1.00;;;5.40;97.30;;;;;;4997905;28;20466;-87
2023/12/22 11:21:27;;;;;;;1.10;1.00;;;5.50;97.30;;;;;;5015797;28;20424;-89
2023/12/22 11:23:53;;;;;;;1.10;1.00;;;5.60;97.30;;;;;;4997640;28;20963;-87
2023/12/22 11:26:20;;;;;;;0.90;0.80;;;5.90;97.30;;;;;;4997671;28;20655;-87
2023/12/22 11:28:46;;;;;;;0.90;0.80;;;6.10;97.30;;;;;;4997838;28;20424;-86
2023/12/22 11:31:16;;;;;;;0.90;0.80;;;6.20;97.30;;;;;;5015931;28;20527;-86
2023/12/22 11:33:48;;;;;;;1.13;1.03;;;6.20;97.30;;;;;;4997849;28;20416;-88
2023/12/22 11:36:15;;;;;;;1.00;0.90;;;6.20;97.30;;;;;;4998506;28;20451;-88
2023/12/22 11:38:41;;;;;;;1.30;1.20;;;6.20;97.30;;;;;;5016534;28;20431;-86
2023/12/22 11:41:10;;;;;;;0.90;0.80;;;5.90;96.80;;;;;;5015790;28;20443;-87
2023/12/22 11:43:38;;;;;;;0.97;0.87;;;5.40;97.30;;;;;;4996914;28;20420;-88
2023/12/22 11:46:03;;;;;;;1.00;0.90;;;5.00;97.30;;;;;;4998334;28;20470;-87
2023/12/22 11:48:30;;;;;;;0.90;0.80;;;4.60;97.30;;;;;;4997986;28;20412;-88
2023/12/22 11:50:56;;;;;;;1.00;0.90;;;4.50;97.30;;;;;;4999135;28;20205;-88
2023/12/22 11:53:22;;;;;;;1.10;1.00;;;4.40;97.30;;;;;;4998446;28;20583;-88
2023/12/22 11:56:05;;;;;;;1.00;0.90;;;4.30;97.30;;;;;;4997334;28;20208;-87
2023/12/22 11:58:38;;;;;;;1.00;0.90;;;4.30;97.30;;;;;;4993376;28;20413;-87
2023/12/22 12:01:07;;;;;;;1.00;0.90;;;4.30;97.30;;;;;;4997932;28;20463;-89
2023/12/22 12:03:32;;;;;;;1.50;1.40;;;4.30;97.30;;;;;;4999375;28;20496;-87
2023/12/22 12:06:13;;;;;;;1.20;1.10;;;4.30;97.30;;;;;;4999108;28;20455;-89
2023/12/22 12:08:39;;;;;;;1.73;1.63;;;4.30;97.30;;;;;;5012591;28;20258;-87
2023/12/22 12:11:06;;;;;;;0.90;0.80;;;4.30;97.30;;;;;;4996909;28;21088;-89
2023/12/22 12:13:42;;;;;;;1.10;1.00;;;4.30;97.30;;;;;;4996058;28;20178;-87
2023/12/22 12:16:08;;;;;;;1.00;0.90;;;4.20;97.30;;;;;;4995742;28;20427;-86
2023/12/22 12:18:34;;;;;;;1.17;1.17;;;4.10;97.30;;;;;;4995133;28;20774;-91
2023/12/22 12:21:00;;;;;;;1.30;1.20;;;4.00;97.30;;;;;;4996263;28;20204;-87
2023/12/22 12:23:27;;;;;;;1.00;0.90;;;3.70;97.30;;;;;;5014177;28;20419;-91
2023/12/22 12:25:54;;;;;;;1.10;1.00;;;3.40;97.30;;;;;;4996694;28;20192;-88
2023/12/22 12:28:25;;;;;;;1.00;0.90;;;3.10;97.30;;;;;;4997665;28;20910;-89
2023/12/22 12:30:59;;;;;;;0.90;0.80;;;2.70;97.30;;;;;;4995433;28;20436;-90
2023/12/22 12:33:24;;;;;;;1.10;1.00;;;2.50;97.30;;;;;;4996532;28;20424;-89
2023/12/22 12:35:53;;;;;;;1.20;1.10;;;2.40;97.30;;;;;;4997341;28;20475;-87
2023/12/22 12:38:23;;;;;;;1.10;1.00;;;2.30;97.30;;;;;;4993042;28;20185;-89
2023/12/22 12:40:50;;;;;;;1.00;0.90;;;2.20;97.30;;;;;;4994940;28;20450;-88
2023/12/22 12:43:18;;;;;;;1.00;0.90;;;2.20;97.30;;;;;;4993946;28;20792;-88
2023/12/22 12:45:44;;;;;;;1.13;1.03;;;2.10;97.30;;;;;;5008220;28;20801;-90
2023/12/22 12:48:10;;;;;;;1.10;1.00;;;2.10;97.30;;;;;;4990807;28;20430;-89
2023/12/22 12:50:36;;;;;;;1.00;0.90;;;2.10;97.30;;;;;;4988070;28;20874;-87
2023/12/22 12:53:06;;;;;;;5.97;2.50;;;2.00;97.30;;;;;;4990508;28;20742;-88
2023/12/22 12:55:31;;;;;;;1.10;1.00;;;2.00;97.30;;;;;;4993299;28;20707;-88
2023/12/22 12:57:57;;;;;;;1.10;1.00;;;2.00;97.30;;;;;;4989625;28;20416;-86
2023/12/22 13:02:55;;;;;;;1.00;0.90;;;2.00;97.30;;;;;;4986367;28;20209;-59
2023/12/22 13:05:24;;;;;;;1.10;1.00;;;1.90;97.30;;;;;;4989432;28;20417;-61
2023/12/22 13:07:50;;;;;;;1.00;0.90;;;2.00;97.30;;;;;;4994703;28;20419;-61
2023/12/22 13:10:23;;;;;;;1.30;1.20;;;2.10;97.30;;;;;;4971079;28;20844;-62
2023/12/22 13:12:50;;;;;;;1.20;1.10;;;2.10;97.30;;;;;;4979427;28;20273;-59
2023/12/22 13:15:16;;;;;;;1.10;1.00;;;2.20;97.30;;;;;;4988017;28;20472;-60
2023/12/22 13:17:43;;;;;;;1.20;1.10;;;2.30;97.30;;;;;;4975031;28;20418;-59
2023/12/22 13:20:10;;;;;;;1.10;1.00;;;2.40;97.30;;;;;;4970160;28;20212;-60
2023/12/22 13:22:35;;;;;;;1.10;1.00;;;2.50;97.30;;;;;;4970935;28;20583;-61
2023/12/22 13:25:01;;;;;;;1.00;0.90;;;2.60;97.30;;;;;;4968914;28;20775;-60
2023/12/22 13:27:26;;;;;;;1.10;1.00;;;2.70;97.30;;;;;;4965446;28;20182;-60
2023/12/22 13:29:53;;;;;;;1.20;1.10;;;2.70;97.30;;;;;;4963334;28;20190;-60
2023/12/22 13:32:21;;;;;;;1.00;0.90;;;2.80;97.30;;;;;;4971822;28;20568;-60
2023/12/22 13:34:51;;;;;;;3.27;1.20;;;3.00;97.30;;;;;;4986211;28;20457;-59
2023/12/22 13:37:17;;;;;;;1.10;1.00;;;3.00;97.30;;;;;;4989393;28;20416;-60
2023/12/22 13:39:43;;;;;;;1.30;1.20;;;3.10;97.30;;;;;;4989558;28;20421;-60
2023/12/22 13:42:19;;;;;;;1.10;1.00;;;3.10;97.30;;;;;;5012209;22;20489;-69
2023/12/22 13:44:49;;;;;;;1.30;1.20;;;3.10;97.30;;;;;;5048219;28;20202;-70
2023/12/22 13:47:16;;;;;;;1.10;1.00;;;3.20;97.30;;;;;;5049342;28;20422;-70
2023/12/22 13:49:43;;;;;;;1.00;0.90;;;3.30;97.30;;;;;;5031185;28;20448;-71
2023/12/22 13:52:24;;;;;;;1.00;0.90;;;3.30;97.30;;;;;;5013790;28;20538;-71
2023/12/22 13:54:49;;;;;;;1.00;0.90;;;3.30;97.30;;;;;;5042618;22;20506;-89
2023/12/22 13:57:24;;;;;;;1.63;1.23;;;3.20;97.30;;;;;;5016156;28;20435;-88
2023/12/22 13:59:52;;;;;;;1.00;0.90;;;3.20;97.30;;;;;;5024215;28;20180;-90
2023/12/22 14:02:20;;;;;;;1.10;1.00;;;3.20;97.30;;;;;;5022030;28;20433;-90
2023/12/22 14:04:45;;;;;;;1.00;0.90;;;3.30;97.30;;;;;;5018345;28;20526;-87
2023/12/22 14:07:11;;;;;;;0.90;0.80;;;3.40;97.30;;;;;;5013978;28;20457;-88
2023/12/22 14:09:38;;;;;;;1.20;1.10;;;3.40;97.30;;;;;;4997055;28;20560;-90
2023/12/22 14:12:04;;;;;;;1.20;1.10;;;3.40;97.30;;;;;;4996695;28;20169;-90
2023/12/22 14:14:31;;;;;;;0.90;0.80;;;3.30;97.30;;;;;;5015855;28;20475;-89
2023/12/22 14:16:57;;;;;;;1.00;0.90;;;3.30;97.30;;;;;;4999332;28;20255;-91
2023/12/22 14:19:22;;;;;;;1.57;1.00;;;3.40;97.30;;;;;;5001159;28;20405;-88
2023/12/22 14:21:48;;;;;;;1.00;0.90;;;3.40;97.30;;;;;;5000216;28;20169;-90
2023/12/22 14:24:13;;;;;;;1.47;1.37;;;3.40;97.30;;;;;;4994815;28;20185;-89
2023/12/22 14:26:55;;;;;;;1.57;1.30;;;3.40;97.30;;;;;;5000696;28;20185;-88
2023/12/22 14:29:22;;;;;;;0.90;0.80;;;3.40;97.30;;;;;;4996221;28;20280;-89
2023/12/22 14:31:49;;;;;;;1.67;1.57;;;3.30;97.30;;;;;;4999360;28;20423;-90
2023/12/22 14:34:14;;;;;;;1.00;0.90;;;3.30;97.30;;;;;;4998145;28;20525;-89
2023/12/22 14:36:40;;;;;;;1.00;0.90;;;3.30;97.30;;;;;;4998437;28;20420;-88
2023/12/22 14:39:05;;;;;;;1.53;1.10;;;3.30;97.30;;;;;;4998366;28;20537;-88
2023/12/22 14:41:31;;;;;;;0.97;0.87;;;3.40;97.30;;;;;;5002039;28;20245;-87
2023/12/22 14:43:56;;;;;;;1.10;1.00;;;3.40;97.30;;;;;;5000470;28;20177;-85
2023/12/22 14:46:22;;;;;;;1.20;1.10;;;3.40;97.30;;;;;;5014073;28;20173;-90
2023/12/22 14:48:47;;;;;;;1.00;0.90;;;3.40;97.30;;;;;;5017364;28;20200;-89
2023/12/22 14:51:13;;;;;;;1.33;1.27;;;3.40;97.30;;;;;;4997340;28;20182;-89
2023/12/22 14:53:39;;;;;;;3.13;2.97;;;3.50;97.30;;;;;;4998962;28;20177;-90
2023/12/22 14:56:05;;;;;;;1.07;0.97;;;3.50;97.30;;;;;;5019589;28;20236;-90
2023/12/22 14:58:32;;;;;;;1.53;1.43;;;3.60;97.30;;;;;;4998057;28;20417;-89
2023/12/22 15:00:57;;;;;;;1.80;1.13;;;3.60;97.30;;;;;;4996587;28;20434;-87
2023/12/22 15:03:26;;;;;;;1.00;0.90;;;3.60;97.30;;;;;;5001490;28;20854;-88
2023/12/22 15:05:51;;;;;;;1.10;1.00;;;3.70;97.30;;;;;;4993374;28;20295;-88
2023/12/22 15:08:17;;;;;;;1.27;1.17;;;3.70;97.30;;;;;;4997838;28;20519;-90
2023/12/22 15:10:42;;;;;;;0.93;0.83;;;3.80;97.30;;;;;;5015429;28;20647;-89
2023/12/22 15:13:07;;;;;;;1.10;1.00;;;3.90;97.30;;;;;;4998859;28;20250;-88
2023/12/22 15:15:33;;;;;;;0.97;0.87;;;4.00;97.30;;;;;;4997695;28;20227;-87
2023/12/22 15:17:59;;;;;;;1.00;0.90;;;4.10;97.30;;;;;;5003555;28;20222;-89
2023/12/22 15:20:24;;;;;;;1.73;1.63;;;4.10;97.30;;;;;;5020403;28;20209;-89
2023/12/22 15:22:50;;;;;;;0.83;0.73;;;4.10;97.30;;;;;;5016395;28;20173;-91
2023/12/22 15:25:15;;;;;;;1.10;1.00;;;4.10;97.30;;;;;;5014944;28;20204;-89
2023/12/22 15:27:41;;;;;;;1.47;1.47;;;4.10;97.30;;;;;;5016603;28;20181;-88
2023/12/22 15:30:07;;;;;;;1.40;1.30;;;4.10;97.30;;;;;;5004811;28;20180;-91
2023/12/22 15:32:32;;;;;;;3.53;1.10;;;4.10;97.30;;;;;;5018812;28;20236;-92
2023/12/22 15:34:58;;;;;;;3.03;1.07;;;4.10;97.30;;;;;;5013040;28;20467;-89
2023/12/22 15:37:23;;;;;;;1.37;1.30;;;4.10;97.30;;;;;;5007882;28;20653;-91
2023/12/22 15:39:48;;;;;;;4.77;3.03;;;4.10;97.30;;;;;;5023779;28;20230;-91
2023/12/22 15:42:14;;;;;;;5.93;2.07;;;4.10;97.30;;;;;;5012236;28;20193;-88
2023/12/22 15:44:40;;;;;;;0.90;0.80;;;4.10;97.30;;;;;;5021305;28;20286;-88
2023/12/22 15:47:09;;;;;;;1.00;0.90;;;4.20;97.30;;;;;;5005760;28;20189;-89
2023/12/22 15:49:41;;;;;;;1.00;0.90;;;4.20;97.30;;;;;;5003585;28;20970;-88
2023/12/22 15:52:07;;;;;;;2.03;1.90;;;4.30;97.30;;;;;;5006342;28;20451;-89
2023/12/22 15:54:34;;;;;;;1.00;0.90;;;4.40;97.30;;;;;;5009775;28;20479;-89
2023/12/22 15:57:02;;;;;;;1.00;0.90;;;4.50;97.30;;;;;;5012855;28;20423;-88
2023/12/22 15:59:27;;;;;;;1.07;0.97;;;4.60;97.30;;;;;;5014808;28;20489;-89
2023/12/22 16:01:53;;;;;;;1.00;0.90;;;4.70;97.30;;;;;;5014569;28;20435;-90
2023/12/22 16:04:18;;;;;;;1.00;0.90;;;4.70;97.30;;;;;;5010339;28;20213;-90
2023/12/22 16:06:44;;;;;;;1.00;0.90;;;4.80;97.30;;;;;;5010760;28;20533;-90
2023/12/22 16:09:09;;;;;;;1.30;1.20;;;4.80;97.30;;;;;;5031658;28;20187;-89
2023/12/22 16:11:35;;;;;;;0.83;0.73;;;4.80;97.30;;;;;;5014237;28;20211;-89
2023/12/22 16:14:00;;;;;;;1.00;0.90;;;4.80;97.30;;;;;;5008191;28;20193;-88
2023/12/22 16:16:26;;;;;;;42.73;2.30;;;4.80;97.30;;;;;;5012267;28;20184;-88
2023/12/22 16:18:51;;;;;;;1.50;1.40;;;4.80;97.30;;;;;;5015706;28;20185;-91
2023/12/22 16:21:17;;;;;;;1.10;1.00;;;4.80;97.30;;;;;;5013631;28;20184;-89
2023/12/22 16:23:42;;;;;;;0.90;0.80;;;4.90;97.30;;;;;;5015654;28;20180;-90
2023/12/22 16:26:08;;;;;;;1.10;1.00;;;4.90;97.30;;;;;;5008028;28;20240;-89
2023/12/22 16:28:33;;;;;;;1.90;1.50;;;4.90;97.30;;;;;;5006453;28;20185;-87
2023/12/22 16:31:01;;;;;;;4.20;2.73;;;5.00;97.30;;;;;;5010969;28;20184;-90
2023/12/22 16:33:27;;;;;;;0.90;0.80;;;5.00;97.30;;;;;;5012339;28;20673;-90
2023/12/22 16:35:52;;;;;;;4.77;1.43;;;5.10;97.30;;;;;;5026098;28;20462;-87
2023/12/22 16:38:18;;;;;;;1.00;0.90;;;5.10;97.30;;;;;;5013318;28;20466;-89
2023/12/22 16:40:44;;;;;;;1.60;1.50;;;5.10;97.30;;;;;;5013037;28;20184;-89
2023/12/22 16:43:10;;;;;;;3.63;1.20;;;5.10;97.30;;;;;;5014318;28;20202;-88
2023/12/22 16:45:35;;;;;;;0.90;0.80;;;5.00;97.30;;;;;;5015270;28;20443;-88
2023/12/22 16:48:01;;;;;;;0.90;0.80;;;4.50;97.30;;;;;;5032444;28;20508;-89
2023/12/22 16:50:27;;;;;;;1.00;0.90;;;4.10;97.30;;;;;;5011939;28;20572;-90
2023/12/22 16:52:54;;;;;;;0.90;0.80;;;3.90;97.30;;;;;;5011580;28;20446;-88
2023/12/22 16:55:19;;;;;;;0.90;0.80;;;3.70;97.30;;;;;;5015453;28;20235;-90
2023/12/22 16:57:45;;;;;;;1.00;0.90;;;3.50;97.30;;;;;;5013809;28;20415;-90
2023/12/22 17:00:13;;;;;;;1.00;0.90;;;3.30;97.30;;;;;;5012173;28;20668;-89
2023/12/22 17:02:38;;;;;;;1.00;0.90;;;3.00;97.30;;;;;;5000879;28;20181;-88
2023/12/22 17:05:04;;;;;;;0.90;0.80;;;2.90;97.30;;;;;;5014585;28;20439;-88
2023/12/22 17:07:30;;;;;;;0.90;0.80;;;2.80;97.30;;;;;;5011951;28;20185;-89
2023/12/22 17:09:55;;;;;;;1.30;1.20;;;2.70;97.30;;;;;;5011575;28;20451;-89
2023/12/22 17:12:21;;;;;;;0.90;0.80;;;2.70;97.30;;;;;;5015536;28;20755;-88
2023/12/22 17:14:47;;;;;;;1.00;0.90;;;2.60;97.30;;;;;;5032223;28;20209;-89
2023/12/22 17:17:14;;;;;;;0.97;0.87;;;2.50;97.30;;;;;;5009617;28;20180;-88
2023/12/22 17:19:40;;;;;;;1.00;0.90;;;2.50;97.30;;;;;;5014517;28;20443;-91
2023/12/22 17:22:05;;;;;;;1.03;0.93;;;2.40;97.30;;;;;;5009637;28;20419;-90
2023/12/22 17:24:31;;;;;;;0.90;0.80;;;2.40;97.30;;;;;;5031657;28;20258;-89
2023/12/22 17:26:56;;;;;;;1.00;0.90;;;2.30;97.30;;;;;;5031625;28;20180;-90
2023/12/22 17:29:22;;;;;;;1.00;0.90;;;2.30;97.30;;;;;;5008292;28;20256;-90
2023/12/22 17:31:48;;;;;;;0.90;0.80;;;2.40;97.30;;;;;;5002856;28;20192;-89
2023/12/22 17:34:13;;;;;;;1.40;1.30;;;2.40;97.30;;;;;;4994626;28;20460;-84
2023/12/22 17:36:39;;;;;;;1.00;0.90;;;2.40;97.30;;;;;;4994048;28;20212;-89
2023/12/22 17:39:04;;;;;;;1.00;0.90;;;2.30;97.30;;;;;;4994867;28;20185;-90
2023/12/22 17:41:30;;;;;;;1.00;0.90;;;2.30;97.30;;;;;;4994413;28;20192;-87
2023/12/22 17:43:55;;;;;;;1.10;1.00;;;2.20;97.30;;;;;;4995397;28;20268;-88
2023/12/22 17:46:21;;;;;;;1.10;1.00;;;2.20;97.30;;;;;;4994300;28;20181;-86
2023/12/22 17:48:46;;;;;;;1.00;0.90;;;2.20;97.30;;;;;;4996668;28;20457;-89
2023/12/22 17:51:12;;;;;;;1.00;0.90;;;2.20;97.30;;;;;;4994859;28;20196;-87
2023/12/22 17:53:37;;;;;;;1.00;0.90;;;2.20;97.30;;;;;;4993821;28;20177;-88
2023/12/22 17:56:03;;;;;;;1.00;0.90;;;2.10;97.30;;;;;;4996110;28;20220;-89
2023/12/22 17:58:29;;;;;;;1.00;0.90;;;2.00;97.30;;;;;;4992709;28;20173;-88